URKAI UHMP-UHMI
Flight info
| Callsign | URKAI |
|---|---|
| Flight time | 1h 9m |
| Altitude | 23000 |
| Route | NEKON1B NEKON R351 NISEL DCT |
| Aircraft | TBM9/L-SDFGY/C |
Departure
| Time | 2026-04-22 03:37 |
|---|---|
| Airport | Pevek Airport (UHMP) |
Arrival
| Time | 2026-04-22 04:46 |
|---|---|
| Airport | Mys Shmidta Airport (UHMI) |
| Time | Latitude | Longitude | Altitude | Speed | Heading |
|---|---|---|---|---|---|
| 2026-04-22 03:24 | 69.78732 | 170.60189 | 26 ft | 0 kts | 77° |
| 2026-04-22 03:29 | 69.78735 | 170.60202 | 23 ft | 3 kts | 50° |
| 2026-04-22 03:30 | 69.78744 | 170.60158 | 23 ft | 6 kts | 253° |
| 2026-04-22 03:30 | 69.78743 | 170.60139 | 23 ft | 0 kts | 257° |
| 2026-04-22 03:30 | 69.78782 | 170.60064 | 23 ft | 15 kts | 352° |
| 2026-04-22 03:30 | 69.78835 | 170.59809 | 25 ft | 15 kts | 255° |
| 2026-04-22 03:31 | 69.78828 | 170.59723 | 24 ft | 0 kts | 258° |
| 2026-04-22 03:31 | 69.78828 | 170.59721 | 24 ft | 1 kts | 257° |
| 2026-04-22 03:31 | 69.78807 | 170.59520 | 25 ft | 19 kts | 255° |
| 2026-04-22 03:32 | 69.78682 | 170.59421 | 23 ft | 23 kts | 167° |
| 2026-04-22 03:32 | 69.78521 | 170.59546 | 21 ft | 24 kts | 161° |
| 2026-04-22 03:32 | 69.78358 | 170.59645 | 23 ft | 23 kts | 166° |
| 2026-04-22 03:32 | 69.78203 | 170.59749 | 24 ft | 23 kts | 166° |
| 2026-04-22 03:33 | 69.78040 | 170.59855 | 23 ft | 27 kts | 165° |
| 2026-04-22 03:33 | 69.77849 | 170.59990 | 23 ft | 29 kts | 166° |
| 2026-04-22 03:33 | 69.77645 | 170.60130 | 22 ft | 31 kts | 167° |
| 2026-04-22 03:33 | 69.77438 | 170.60267 | 23 ft | 30 kts | 167° |
| 2026-04-22 03:34 | 69.77278 | 170.60335 | 25 ft | 16 kts | 185° |
| 2026-04-22 03:34 | 69.77297 | 170.60363 | 25 ft | 9 kts | 342° |
| 2026-04-22 03:34 | 69.77300 | 170.60361 | 25 ft | 0 kts | 343° |
| 2026-04-22 03:36 | 69.77303 | 170.60358 | 25 ft | 7 kts | 343° |
| 2026-04-22 03:36 | 69.77568 | 170.60186 | 23 ft | 69 kts | 346° |
| 2026-04-22 03:36 | 69.78185 | 170.59749 | 146 ft | 104 kts | 343° |
| 2026-04-22 03:37 | 69.78930 | 170.59400 | 669 ft | 108 kts | 359° |
| 2026-04-22 03:37 | 69.79680 | 170.59393 | 1266 ft | 105 kts | 359° |
| 2026-04-22 03:37 | 69.80381 | 170.59473 | 1916 ft | 99 kts | 6° |
| 2026-04-22 03:37 | 69.81063 | 170.59452 | 2462 ft | 97 kts | 351° |
| 2026-04-22 03:38 | 69.81494 | 170.59363 | 2884 ft | 87 kts | 5° |
| 2026-04-22 03:38 | 69.82077 | 170.59359 | 3333 ft | 91 kts | 348° |
| 2026-04-22 03:38 | 69.82897 | 170.57980 | 3666 ft | 122 kts | 316° |
| 2026-04-22 03:38 | 69.83322 | 170.55717 | 4143 ft | 126 kts | 293° |
| 2026-04-22 03:39 | 69.83357 | 170.54020 | 4497 ft | 136 kts | 265° |
| 2026-04-22 03:39 | 69.82795 | 170.50539 | 5144 ft | 151 kts | 235° |
| 2026-04-22 03:39 | 69.82219 | 170.49306 | 5400 ft | 161 kts | 211° |
| 2026-04-22 03:39 | 69.81082 | 170.48843 | 5712 ft | 173 kts | 173° |
| 2026-04-22 03:40 | 69.80029 | 170.50257 | 6147 ft | 162 kts | 141° |
| 2026-04-22 03:40 | 69.79351 | 170.52790 | 6590 ft | 157 kts | 108° |
| 2026-04-22 03:40 | 69.79374 | 170.55770 | 6904 ft | 153 kts | 57° |
| 2026-04-22 03:40 | 69.80185 | 170.58037 | 6879 ft | 171 kts | 39° |
| 2026-04-22 03:41 | 69.81102 | 170.59821 | 7506 ft | 148 kts | 17° |
| 2026-04-22 03:41 | 69.82038 | 170.60152 | 8119 ft | 137 kts | 346° |
| 2026-04-22 03:41 | 69.82975 | 170.58963 | 8011 ft | 169 kts | 328° |
| 2026-04-22 03:41 | 69.83771 | 170.55860 | 7501 ft | 201 kts | 295° |
| 2026-04-22 03:42 | 69.83922 | 170.52023 | 7679 ft | 192 kts | 262° |
| 2026-04-22 03:42 | 69.83056 | 170.49452 | 8026 ft | 187 kts | 191° |
| 2026-04-22 03:42 | 69.81913 | 170.50413 | 8520 ft | 166 kts | 138° |
| 2026-04-22 03:42 | 69.81238 | 170.53087 | 8655 ft | 168 kts | 118° |
| 2026-04-22 03:43 | 69.80637 | 170.55984 | 8874 ft | 167 kts | 110° |
| 2026-04-22 03:43 | 69.80219 | 170.59082 | 9067 ft | 162 kts | 94° |
| 2026-04-22 03:43 | 69.79966 | 170.62258 | 9270 ft | 164 kts | 97° |
| 2026-04-22 03:43 | 69.79668 | 170.65479 | 9465 ft | 165 kts | 99° |
| 2026-04-22 03:44 | 69.79376 | 170.68631 | 9692 ft | 163 kts | 92° |
| 2026-04-22 03:44 | 69.79237 | 170.71859 | 9926 ft | 165 kts | 102° |
| 2026-04-22 03:44 | 69.78872 | 170.75023 | 10116 ft | 166 kts | 100° |
| 2026-04-22 03:44 | 69.78510 | 170.78203 | 10367 ft | 164 kts | 105° |
| 2026-04-22 03:45 | 69.78194 | 170.81110 | 10821 ft | 147 kts | 101° |
| 2026-04-22 03:45 | 69.77826 | 170.84116 | 10765 ft | 168 kts | 107° |
| 2026-04-22 03:45 | 69.77339 | 170.87275 | 10890 ft | 173 kts | 112° |
| 2026-04-22 03:45 | 69.76872 | 170.90399 | 11042 ft | 169 kts | 97° |
| 2026-04-22 03:46 | 69.76706 | 170.93715 | 11244 ft | 166 kts | 92° |
| 2026-04-22 03:46 | 69.76534 | 170.97021 | 11413 ft | 167 kts | 95° |
| 2026-04-22 03:46 | 69.76322 | 171.00333 | 11590 ft | 168 kts | 96° |
| 2026-04-22 03:46 | 69.76098 | 171.03648 | 11763 ft | 168 kts | 96° |
| 2026-04-22 03:47 | 69.75871 | 171.06965 | 11938 ft | 168 kts | 96° |
| 2026-04-22 03:47 | 69.75643 | 171.10301 | 12046 ft | 173 kts | 96° |
| 2026-04-22 03:47 | 69.75402 | 171.13805 | 12050 ft | 181 kts | 97° |
| 2026-04-22 03:47 | 69.75154 | 171.17378 | 12216 ft | 179 kts | 97° |
| 2026-04-22 03:48 | 69.74913 | 171.20909 | 12490 ft | 186 kts | 96° |
| 2026-04-22 03:48 | 69.74653 | 171.24652 | 12776 ft | 193 kts | 97° |
| 2026-04-22 03:48 | 69.74381 | 171.28502 | 13061 ft | 199 kts | 97° |
| 2026-04-22 03:48 | 69.74105 | 171.32422 | 13342 ft | 190 kts | 97° |
| 2026-04-22 03:49 | 69.73858 | 171.35811 | 13570 ft | 155 kts | 96° |
| 2026-04-22 03:49 | 69.73673 | 171.38535 | 13765 ft | 121 kts | 93° |
| 2026-04-22 03:49 | 69.73579 | 171.40109 | 13843 ft | 124 kts | 89° |
| 2026-04-22 03:49 | 69.73441 | 171.42275 | 14004 ft | 116 kts | 96° |
| 2026-04-22 03:50 | 69.73290 | 171.44449 | 13822 ft | 113 kts | 89° |
| 2026-04-22 03:50 | 69.73144 | 171.46869 | 13460 ft | 127 kts | 94° |
| 2026-04-22 03:50 | 69.72973 | 171.49361 | 13164 ft | 131 kts | 91° |
| 2026-04-22 03:50 | 69.72927 | 171.51913 | 13086 ft | 110 kts | 71° |
| 2026-04-22 03:51 | 69.73056 | 171.54010 | 13069 ft | 119 kts | 69° |
| 2026-04-22 03:51 | 69.73075 | 171.56542 | 13385 ft | 143 kts | 106° |
| 2026-04-22 03:51 | 69.72493 | 171.58770 | 14088 ft | 131 kts | 120° |
| 2026-04-22 03:51 | 69.71980 | 171.61129 | 14292 ft | 152 kts | 112° |
| 2026-04-22 03:52 | 69.71606 | 171.63719 | 14610 ft | 144 kts | 94° |
| 2026-04-22 03:52 | 69.71417 | 171.67070 | 14641 ft | 181 kts | 97° |
| 2026-04-22 03:52 | 69.71312 | 171.70180 | 15689 ft | 130 kts | 80° |
| 2026-04-22 03:52 | 69.71277 | 171.73313 | 15462 ft | 182 kts | 92° |
| 2026-04-22 03:53 | 69.70933 | 171.76708 | 16262 ft | 162 kts | 99° |
| 2026-04-22 03:53 | 69.70739 | 171.79693 | 16937 ft | 151 kts | 90° |
| 2026-04-22 03:53 | 69.70566 | 171.82820 | 17269 ft | 166 kts | 94° |
| 2026-04-22 03:53 | 69.70328 | 171.86170 | 17579 ft | 179 kts | 96° |
| 2026-04-22 03:54 | 69.70069 | 171.89792 | 17895 ft | 191 kts | 96° |
| 2026-04-22 03:54 | 69.69794 | 171.93786 | 18003 ft | 210 kts | 96° |
| 2026-04-22 03:54 | 69.69514 | 171.97929 | 18480 ft | 211 kts | 96° |
| 2026-04-22 03:54 | 69.69232 | 172.02097 | 18905 ft | 213 kts | 96° |
| 2026-04-22 03:55 | 69.68949 | 172.06304 | 19304 ft | 214 kts | 96° |
| 2026-04-22 03:55 | 69.68665 | 172.10527 | 19700 ft | 216 kts | 96° |
| 2026-04-22 03:55 | 69.68377 | 172.14783 | 20115 ft | 217 kts | 96° |
| 2026-04-22 03:55 | 69.68092 | 172.19008 | 20510 ft | 218 kts | 96° |
| 2026-04-22 03:56 | 69.67801 | 172.23317 | 20920 ft | 220 kts | 96° |
| 2026-04-22 03:56 | 69.67509 | 172.27649 | 21329 ft | 221 kts | 96° |
| 2026-04-22 03:56 | 69.67214 | 172.32013 | 21748 ft | 223 kts | 96° |
| 2026-04-22 03:56 | 69.66918 | 172.36396 | 22178 ft | 224 kts | 96° |
| 2026-04-22 03:57 | 69.66618 | 172.40809 | 22610 ft | 225 kts | 96° |
| 2026-04-22 03:57 | 69.66299 | 172.45247 | 23041 ft | 228 kts | 98° |
| 2026-04-22 03:57 | 69.65949 | 172.49711 | 23410 ft | 232 kts | 97° |
| 2026-04-22 03:57 | 69.65611 | 172.54375 | 23417 ft | 249 kts | 97° |
| 2026-04-22 03:58 | 69.65257 | 172.59386 | 23423 ft | 262 kts | 97° |
| 2026-04-22 03:58 | 69.64879 | 172.64637 | 23423 ft | 273 kts | 98° |
| 2026-04-22 03:58 | 69.64484 | 172.70062 | 23421 ft | 281 kts | 98° |
| 2026-04-22 03:58 | 69.64079 | 172.75642 | 23423 ft | 287 kts | 98° |
| 2026-04-22 03:59 | 69.63668 | 172.81291 | 23427 ft | 291 kts | 98° |
| 2026-04-22 03:59 | 69.63248 | 172.87031 | 23425 ft | 295 kts | 98° |
| 2026-04-22 03:59 | 69.62823 | 172.92816 | 23424 ft | 297 kts | 98° |
| 2026-04-22 03:59 | 69.62399 | 172.98545 | 23423 ft | 299 kts | 98° |
| 2026-04-22 04:00 | 69.61962 | 173.04433 | 23422 ft | 300 kts | 98° |
| 2026-04-22 04:00 | 69.61524 | 173.10313 | 23418 ft | 301 kts | 99° |
| 2026-04-22 04:00 | 69.61090 | 173.16111 | 23421 ft | 301 kts | 99° |
| 2026-04-22 04:00 | 69.60646 | 173.22001 | 23416 ft | 301 kts | 99° |
| 2026-04-22 04:01 | 69.60203 | 173.27867 | 23418 ft | 302 kts | 99° |
| 2026-04-22 04:01 | 69.59755 | 173.33759 | 23413 ft | 302 kts | 99° |
| 2026-04-22 04:01 | 69.59305 | 173.39642 | 23411 ft | 302 kts | 99° |
| 2026-04-22 04:01 | 69.58852 | 173.45539 | 23409 ft | 303 kts | 99° |
| 2026-04-22 04:02 | 69.58398 | 173.51429 | 23405 ft | 302 kts | 99° |
| 2026-04-22 04:02 | 69.57942 | 173.57307 | 23405 ft | 302 kts | 99° |
| 2026-04-22 04:02 | 69.57490 | 173.63114 | 23410 ft | 302 kts | 99° |
| 2026-04-22 04:02 | 69.57025 | 173.69060 | 23405 ft | 303 kts | 99° |
| 2026-04-22 04:03 | 69.56568 | 173.74870 | 23405 ft | 302 kts | 99° |
| 2026-04-22 04:03 | 69.56105 | 173.80739 | 23406 ft | 302 kts | 99° |
| 2026-04-22 04:03 | 69.55639 | 173.86615 | 23402 ft | 302 kts | 100° |
| 2026-04-22 04:03 | 69.55171 | 173.92490 | 23402 ft | 302 kts | 100° |
| 2026-04-22 04:04 | 69.54702 | 173.98340 | 23404 ft | 302 kts | 100° |
| 2026-04-22 04:04 | 69.54229 | 174.04214 | 23405 ft | 302 kts | 100° |
| 2026-04-22 04:04 | 69.53755 | 174.10081 | 23403 ft | 303 kts | 100° |
| 2026-04-22 04:04 | 69.53286 | 174.15860 | 23406 ft | 303 kts | 100° |
| 2026-04-22 04:05 | 69.52802 | 174.21794 | 23404 ft | 303 kts | 100° |
| 2026-04-22 04:05 | 69.52328 | 174.27581 | 23399 ft | 303 kts | 100° |
| 2026-04-22 04:05 | 69.51844 | 174.33460 | 23402 ft | 303 kts | 100° |
| 2026-04-22 04:05 | 69.51360 | 174.39308 | 23395 ft | 303 kts | 100° |
| 2026-04-22 04:06 | 69.50874 | 174.45158 | 23398 ft | 303 kts | 101° |
| 2026-04-22 04:06 | 69.50385 | 174.51031 | 23395 ft | 303 kts | 101° |
| 2026-04-22 04:06 | 69.49894 | 174.56889 | 23396 ft | 303 kts | 101° |
| 2026-04-22 04:06 | 69.49402 | 174.62731 | 23397 ft | 303 kts | 101° |
| 2026-04-22 04:07 | 69.48908 | 174.68578 | 23397 ft | 303 kts | 101° |
| 2026-04-22 04:07 | 69.48417 | 174.74361 | 23394 ft | 303 kts | 101° |
| 2026-04-22 04:07 | 69.47919 | 174.80189 | 23396 ft | 303 kts | 101° |
| 2026-04-22 04:07 | 69.47427 | 174.86034 | 23394 ft | 303 kts | 101° |
| 2026-04-22 04:08 | 69.46929 | 174.91889 | 23394 ft | 303 kts | 101° |
| 2026-04-22 04:08 | 69.46417 | 174.97709 | 23392 ft | 303 kts | 101° |
| 2026-04-22 04:08 | 69.45905 | 175.03533 | 23393 ft | 303 kts | 101° |
| 2026-04-22 04:08 | 69.45405 | 175.09285 | 23393 ft | 303 kts | 101° |
| 2026-04-22 04:09 | 69.44896 | 175.15127 | 23391 ft | 303 kts | 101° |
| 2026-04-22 04:09 | 69.44381 | 175.20971 | 23396 ft | 304 kts | 102° |
| 2026-04-22 04:09 | 69.43864 | 175.26815 | 23394 ft | 304 kts | 102° |
| 2026-04-22 04:09 | 69.43346 | 175.32662 | 23392 ft | 305 kts | 102° |
| 2026-04-22 04:10 | 69.42832 | 175.38446 | 23393 ft | 305 kts | 102° |
| 2026-04-22 04:10 | 69.42309 | 175.44291 | 23392 ft | 305 kts | 102° |
| 2026-04-22 04:10 | 69.41782 | 175.50152 | 23390 ft | 306 kts | 102° |
| 2026-04-22 04:10 | 69.41251 | 175.56041 | 23394 ft | 306 kts | 102° |
| 2026-04-22 04:11 | 69.40722 | 175.61887 | 23394 ft | 306 kts | 102° |
| 2026-04-22 04:11 | 69.40189 | 175.67752 | 23394 ft | 306 kts | 102° |
| 2026-04-22 04:11 | 69.39660 | 175.73541 | 23393 ft | 307 kts | 102° |
| 2026-04-22 04:11 | 69.39122 | 175.79401 | 23391 ft | 307 kts | 102° |
| 2026-04-22 04:12 | 69.38582 | 175.85261 | 23387 ft | 307 kts | 102° |
| 2026-04-22 04:12 | 69.38044 | 175.91112 | 23392 ft | 307 kts | 101° |
| 2026-04-22 04:12 | 69.37522 | 175.96974 | 23388 ft | 298 kts | 102° |
| 2026-04-22 04:12 | 69.37012 | 176.02359 | 23389 ft | 267 kts | 102° |
| 2026-04-22 04:13 | 69.36539 | 176.07439 | 23393 ft | 272 kts | 101° |
| 2026-04-22 04:13 | 69.36055 | 176.12661 | 23393 ft | 282 kts | 102° |
| 2026-04-22 04:13 | 69.35534 | 176.18108 | 23398 ft | 290 kts | 102° |
| 2026-04-22 04:13 | 69.35002 | 176.23675 | 23407 ft | 295 kts | 102° |
| 2026-04-22 04:14 | 69.34464 | 176.29329 | 23405 ft | 300 kts | 102° |
| 2026-04-22 04:14 | 69.33918 | 176.35065 | 23405 ft | 302 kts | 102° |
| 2026-04-22 04:14 | 69.33363 | 176.40850 | 23403 ft | 305 kts | 102° |
| 2026-04-22 04:14 | 69.32810 | 176.46594 | 23400 ft | 307 kts | 102° |
| 2026-04-22 04:15 | 69.32248 | 176.52420 | 23403 ft | 308 kts | 102° |
| 2026-04-22 04:15 | 69.31679 | 176.58289 | 23399 ft | 308 kts | 103° |
| 2026-04-22 04:15 | 69.31111 | 176.64126 | 23401 ft | 309 kts | 103° |
| 2026-04-22 04:15 | 69.30537 | 176.69998 | 23397 ft | 309 kts | 103° |
| 2026-04-22 04:16 | 69.29961 | 176.75873 | 23403 ft | 310 kts | 103° |
| 2026-04-22 04:16 | 69.28801 | 176.87624 | 23400 ft | 310 kts | 103° |
| 2026-04-22 04:16 | 69.28218 | 176.93502 | 23398 ft | 310 kts | 103° |
| 2026-04-22 04:17 | 69.27640 | 176.99307 | 23400 ft | 311 kts | 103° |
| 2026-04-22 04:17 | 69.27050 | 177.05169 | 23398 ft | 312 kts | 103° |
| 2026-04-22 04:17 | 69.26457 | 177.11060 | 23397 ft | 312 kts | 103° |
| 2026-04-22 04:17 | 69.25865 | 177.16969 | 23402 ft | 312 kts | 103° |
| 2026-04-22 04:18 | 69.25268 | 177.22870 | 23396 ft | 312 kts | 103° |
| 2026-04-22 04:18 | 69.24669 | 177.28758 | 23397 ft | 313 kts | 103° |
| 2026-04-22 04:18 | 69.24085 | 177.34673 | 23402 ft | 310 kts | 100° |
| 2026-04-22 04:18 | 69.23566 | 177.40413 | 23346 ft | 295 kts | 100° |
| 2026-04-22 04:19 | 69.22993 | 177.45858 | 22917 ft | 291 kts | 104° |
| 2026-04-22 04:19 | 69.22378 | 177.51220 | 22485 ft | 284 kts | 102° |
| 2026-04-22 04:19 | 69.21838 | 177.56538 | 22053 ft | 282 kts | 101° |
| 2026-04-22 04:19 | 69.21310 | 177.61866 | 21639 ft | 283 kts | 102° |
| 2026-04-22 04:20 | 69.20753 | 177.67185 | 21226 ft | 283 kts | 102° |
| 2026-04-22 04:20 | 69.20190 | 177.72483 | 20802 ft | 283 kts | 102° |
| 2026-04-22 04:20 | 69.19634 | 177.77728 | 20266 ft | 273 kts | 102° |
| 2026-04-22 04:20 | 69.19125 | 177.82812 | 19742 ft | 266 kts | 101° |
| 2026-04-22 04:21 | 69.18657 | 177.87734 | 19227 ft | 261 kts | 100° |
| 2026-04-22 04:21 | 69.18193 | 177.92646 | 18716 ft | 258 kts | 100° |
| 2026-04-22 04:21 | 69.17735 | 177.97491 | 18139 ft | 255 kts | 100° |
| 2026-04-22 04:21 | 69.17286 | 178.02240 | 17568 ft | 252 kts | 100° |
| 2026-04-22 04:22 | 69.16838 | 178.06960 | 17007 ft | 249 kts | 100° |
| 2026-04-22 04:22 | 69.16391 | 178.11659 | 16452 ft | 247 kts | 100° |
| 2026-04-22 04:22 | 69.15948 | 178.16299 | 15908 ft | 245 kts | 100° |
| 2026-04-22 04:22 | 69.15494 | 178.20883 | 15378 ft | 243 kts | 102° |
| 2026-04-22 04:23 | 69.15039 | 178.25444 | 14858 ft | 241 kts | 102° |
| 2026-04-22 04:23 | 69.14613 | 178.29972 | 14343 ft | 239 kts | 100° |
| 2026-04-22 04:23 | 69.14196 | 178.34470 | 13783 ft | 237 kts | 103° |
| 2026-04-22 04:23 | 69.13748 | 178.38894 | 13215 ft | 235 kts | 103° |
| 2026-04-22 04:24 | 69.13302 | 178.43272 | 12650 ft | 233 kts | 103° |
| 2026-04-22 04:24 | 69.12881 | 178.47573 | 12112 ft | 230 kts | 103° |
| 2026-04-22 04:24 | 69.12467 | 178.51899 | 11568 ft | 229 kts | 102° |
| 2026-04-22 04:24 | 69.12060 | 178.56189 | 11044 ft | 227 kts | 102° |
| 2026-04-22 04:25 | 69.11657 | 178.60455 | 10515 ft | 225 kts | 102° |
| 2026-04-22 04:25 | 69.11257 | 178.64687 | 9966 ft | 223 kts | 102° |
| 2026-04-22 04:25 | 69.10861 | 178.68881 | 9391 ft | 221 kts | 102° |
| 2026-04-22 04:25 | 69.10471 | 178.73023 | 8820 ft | 218 kts | 102° |
| 2026-04-22 04:26 | 69.10088 | 178.77092 | 8269 ft | 213 kts | 102° |
| 2026-04-22 04:26 | 69.09714 | 178.81054 | 7722 ft | 208 kts | 102° |
| 2026-04-22 04:26 | 69.09353 | 178.84898 | 7192 ft | 206 kts | 102° |
| 2026-04-22 04:26 | 69.08995 | 178.88746 | 6653 ft | 204 kts | 102° |
| 2026-04-22 04:27 | 69.08638 | 178.92595 | 6091 ft | 203 kts | 103° |
| 2026-04-22 04:27 | 69.08287 | 178.96421 | 5532 ft | 202 kts | 102° |
| 2026-04-22 04:27 | 69.07939 | 179.00234 | 4975 ft | 202 kts | 103° |
| 2026-04-22 04:27 | 69.07594 | 179.04039 | 4409 ft | 201 kts | 103° |
| 2026-04-22 04:28 | 69.07253 | 179.07806 | 4067 ft | 191 kts | 103° |
| 2026-04-22 04:28 | 69.06927 | 179.11150 | 4145 ft | 174 kts | 104° |
| 2026-04-22 04:28 | 69.06595 | 179.14422 | 3998 ft | 176 kts | 105° |
| 2026-04-22 04:28 | 69.06234 | 179.17688 | 3857 ft | 176 kts | 109° |
| 2026-04-22 04:29 | 69.05789 | 179.20985 | 3721 ft | 190 kts | 110° |
| 2026-04-22 04:29 | 69.05313 | 179.24560 | 3634 ft | 200 kts | 109° |
| 2026-04-22 04:29 | 69.04833 | 179.28246 | 3636 ft | 202 kts | 109° |
| 2026-04-22 04:29 | 69.04513 | 179.30680 | 3635 ft | 201 kts | 110° |
| 2026-04-22 04:30 | 69.03838 | 179.35559 | 3636 ft | 203 kts | 111° |
| 2026-04-22 04:30 | 69.03299 | 179.39218 | 3635 ft | 204 kts | 112° |
| 2026-04-22 04:30 | 69.02737 | 179.42878 | 3630 ft | 206 kts | 113° |
| 2026-04-22 04:30 | 69.02382 | 179.45326 | 3630 ft | 206 kts | 109° |
| 2026-04-22 04:31 | 69.01894 | 179.49090 | 3627 ft | 205 kts | 109° |
| 2026-04-22 04:31 | 69.01413 | 179.52834 | 3631 ft | 205 kts | 109° |
| 2026-04-22 04:31 | 69.00936 | 179.56579 | 3628 ft | 205 kts | 106° |
| 2026-04-22 04:31 | 69.00615 | 179.60381 | 3624 ft | 196 kts | 96° |
| 2026-04-22 04:32 | 69.00353 | 179.64030 | 3617 ft | 193 kts | 99° |
| 2026-04-22 04:32 | 69.00047 | 179.67665 | 3615 ft | 192 kts | 100° |
| 2026-04-22 04:32 | 68.99740 | 179.71302 | 3593 ft | 192 kts | 99° |
| 2026-04-22 04:32 | 68.99446 | 179.74840 | 3444 ft | 186 kts | 99° |
| 2026-04-22 04:33 | 68.99155 | 179.78308 | 3221 ft | 179 kts | 100° |
| 2026-04-22 04:33 | 68.98875 | 179.81578 | 2925 ft | 170 kts | 99° |
| 2026-04-22 04:33 | 68.98600 | 179.84772 | 2624 ft | 168 kts | 100° |
| 2026-04-22 04:33 | 68.98331 | 179.87925 | 2336 ft | 165 kts | 99° |
| 2026-04-22 04:34 | 68.98066 | 179.90937 | 2126 ft | 157 kts | 99° |
| 2026-04-22 04:34 | 68.97808 | 179.93757 | 2119 ft | 145 kts | 100° |
| 2026-04-22 04:34 | 68.97555 | 179.96495 | 2111 ft | 145 kts | 99° |
| 2026-04-22 04:34 | 68.97308 | 179.99237 | 2117 ft | 148 kts | 98° |
| 2026-04-22 04:35 | 68.97111 | -179.98002 | 2125 ft | 142 kts | 93° |
| 2026-04-22 04:35 | 68.96940 | -179.95309 | 2119 ft | 137 kts | 94° |
| 2026-04-22 04:35 | 68.96762 | -179.92766 | 2116 ft | 130 kts | 95° |
| 2026-04-22 04:35 | 68.96720 | -179.90316 | 2117 ft | 125 kts | 84° |
| 2026-04-22 04:36 | 68.96715 | -179.87900 | 2118 ft | 127 kts | 84° |
| 2026-04-22 04:36 | 68.96713 | -179.85423 | 2120 ft | 125 kts | 84° |
| 2026-04-22 04:36 | 68.96611 | -179.83032 | 2122 ft | 128 kts | 100° |
| 2026-04-22 04:36 | 68.96392 | -179.80613 | 2058 ft | 132 kts | 99° |
| 2026-04-22 04:37 | 68.96169 | -179.78066 | 1843 ft | 135 kts | 98° |
| 2026-04-22 04:37 | 68.95948 | -179.75548 | 1623 ft | 132 kts | 100° |
| 2026-04-22 04:37 | 68.95708 | -179.73130 | 1620 ft | 131 kts | 99° |
| 2026-04-22 04:37 | 68.95450 | -179.70624 | 1634 ft | 137 kts | 103° |
| 2026-04-22 04:38 | 68.95183 | -179.68057 | 1633 ft | 139 kts | 102° |
| 2026-04-22 04:38 | 68.94922 | -179.65445 | 1631 ft | 140 kts | 101° |
| 2026-04-22 04:38 | 68.94670 | -179.62876 | 1635 ft | 138 kts | 101° |
| 2026-04-22 04:38 | 68.94420 | -179.60318 | 1623 ft | 136 kts | 99° |
| 2026-04-22 04:39 | 68.94180 | -179.57791 | 1612 ft | 135 kts | 99° |
| 2026-04-22 04:39 | 68.93931 | -179.55290 | 1602 ft | 134 kts | 100° |
| 2026-04-22 04:39 | 68.93662 | -179.52851 | 1583 ft | 127 kts | 111° |
| 2026-04-22 04:39 | 68.93057 | -179.51226 | 1500 ft | 119 kts | 138° |
| 2026-04-22 04:40 | 68.92478 | -179.49583 | 1292 ft | 117 kts | 135° |
| 2026-04-22 04:40 | 68.91866 | -179.48062 | 1059 ft | 117 kts | 137° |
| 2026-04-22 04:40 | 68.91301 | -179.46715 | 965 ft | 97 kts | 138° |
| 2026-04-22 04:40 | 68.90790 | -179.45561 | 807 ft | 94 kts | 140° |
| 2026-04-22 04:41 | 68.90271 | -179.44490 | 744 ft | 92 kts | 141° |
| 2026-04-22 04:41 | 68.89761 | -179.43433 | 649 ft | 91 kts | 139° |
| 2026-04-22 04:41 | 68.89246 | -179.42380 | 510 ft | 91 kts | 141° |
| 2026-04-22 04:41 | 68.88704 | -179.41678 | 489 ft | 84 kts | 180° |
| 2026-04-22 04:42 | 68.88228 | -179.42272 | 649 ft | 73 kts | 231° |
| 2026-04-22 04:42 | 68.87861 | -179.43171 | 822 ft | 74 kts | 213° |
| 2026-04-22 04:42 | 68.87346 | -179.42706 | 948 ft | 88 kts | 144° |
| 2026-04-22 04:42 | 68.86830 | -179.41686 | 1143 ft | 92 kts | 147° |
| 2026-04-22 04:43 | 68.86265 | -179.40624 | 1145 ft | 104 kts | 148° |
| 2026-04-22 04:43 | 68.85666 | -179.39419 | 1130 ft | 108 kts | 149° |
| 2026-04-22 04:43 | 68.85035 | -179.38266 | 1055 ft | 113 kts | 152° |
| 2026-04-22 04:43 | 68.84343 | -179.37139 | 990 ft | 110 kts | 154° |
| 2026-04-22 04:44 | 68.83682 | -179.36053 | 958 ft | 110 kts | 149° |
| 2026-04-22 04:44 | 68.83094 | -179.34795 | 974 ft | 105 kts | 136° |
| 2026-04-22 04:44 | 68.82804 | -179.33004 | 958 ft | 99 kts | 100° |
| 2026-04-22 04:44 | 68.82891 | -179.31256 | 967 ft | 91 kts | 56° |
| 2026-04-22 04:45 | 68.83405 | -179.30548 | 954 ft | 84 kts | 356° |
| 2026-04-22 04:45 | 68.83890 | -179.31499 | 836 ft | 91 kts | 322° |
| 2026-04-22 04:45 | 68.84342 | -179.32609 | 689 ft | 79 kts | 329° |
| 2026-04-22 04:45 | 68.84788 | -179.33474 | 424 ft | 76 kts | 330° |
| 2026-04-22 04:46 | 68.85220 | -179.34282 | 246 ft | 73 kts | 331° |
| 2026-04-22 04:46 | 68.85632 | -179.35118 | 156 ft | 77 kts | 331° |
| 2026-04-22 04:46 | 68.86051 | -179.35947 | 34 ft | 67 kts | 324° |
| 2026-04-22 04:46 | 68.86306 | -179.36480 | 29 ft | 27 kts | 319° |
| 2026-04-22 04:47 | 68.86445 | -179.36777 | 31 ft | 23 kts | 318° |
| 2026-04-22 04:47 | 68.86557 | -179.37021 | 29 ft | 19 kts | 330° |
| 2026-04-22 04:47 | 68.86649 | -179.37233 | 31 ft | 14 kts | 278° |
| 2026-04-22 04:47 | 68.86622 | -179.37435 | 31 ft | 7 kts | 240° |
| 2026-04-22 04:48 | 68.86595 | -179.37550 | 30 ft | 8 kts | 236° |
| 2026-04-22 04:48 | 68.86568 | -179.37793 | 29 ft | 16 kts | 306° |
| 2026-04-22 04:48 | 68.86613 | -179.37895 | 28 ft | 6 kts | 319° |
| 2026-04-22 04:48 | 68.86652 | -179.37967 | 26 ft | 7 kts | 343° |
| 2026-04-22 04:49 | 68.86679 | -179.37950 | 28 ft | 2 kts | 59° |
| 2026-04-22 04:49 | 68.86692 | -179.37884 | 28 ft | 3 kts | 65° |
| 2026-04-22 04:49 | 68.86696 | -179.37861 | 28 ft | 0 kts | 65° |